sensor_id;sensor_type;location;lat;lon;timestamp;P1;durP1;ratioP1;P2;durP2;ratioP2
22843;SDS011;11588;51.178;4.852;2023-06-14T00:02:18;4.60;;;2.38;;
22843;SDS011;11588;51.178;4.852;2023-06-14T00:04:44;3.20;;;1.88;;
22843;SDS011;11588;51.178;4.852;2023-06-14T00:07:11;2.40;;;1.95;;
22843;SDS011;11588;51.178;4.852;2023-06-14T00:09:39;5.57;;;2.20;;
22843;SDS011;11588;51.178;4.852;2023-06-14T00:12:06;3.60;;;2.20;;
22843;SDS011;11588;51.178;4.852;2023-06-14T00:14:32;3.35;;;2.55;;
22843;SDS011;11588;51.178;4.852;2023-06-14T00:16:59;4.20;;;1.90;;
22843;SDS011;11588;51.178;4.852;2023-06-14T00:19:25;6.13;;;2.40;;
22843;SDS011;11588;51.178;4.852;2023-06-14T00:21:52;3.72;;;2.25;;
22843;SDS011;11588;51.178;4.852;2023-06-14T00:24:19;3.20;;;1.98;;
22843;SDS011;11588;51.178;4.852;2023-06-14T00:26:45;3.60;;;2.40;;
22843;SDS011;11588;51.178;4.852;2023-06-14T00:29:11;6.55;;;2.85;;
22843;SDS011;11588;51.178;4.852;2023-06-14T00:31:38;4.07;;;2.25;;
22843;SDS011;11588;51.178;4.852;2023-06-14T00:34:04;3.13;;;1.95;;
22843;SDS011;11588;51.178;4.852;2023-06-14T00:36:30;4.53;;;2.65;;
22843;SDS011;11588;51.178;4.852;2023-06-14T00:38:57;2.78;;;2.08;;
22843;SDS011;11588;51.178;4.852;2023-06-14T00:41:24;10.52;;;2.30;;
22843;SDS011;11588;51.178;4.852;2023-06-14T00:43:50;4.10;;;2.08;;
22843;SDS011;11588;51.178;4.852;2023-06-14T00:46:17;3.53;;;1.83;;
22843;SDS011;11588;51.178;4.852;2023-06-14T00:48:44;4.63;;;2.45;;
22843;SDS011;11588;51.178;4.852;2023-06-14T00:51:11;2.70;;;1.90;;
22843;SDS011;11588;51.178;4.852;2023-06-14T00:53:38;3.28;;;1.77;;
22843;SDS011;11588;51.178;4.852;2023-06-14T00:56:06;4.03;;;2.28;;
22843;SDS011;11588;51.178;4.852;2023-06-14T00:58:32;5.82;;;2.53;;
22843;SDS011;11588;51.178;4.852;2023-06-14T01:00:59;4.38;;;2.05;;
22843;SDS011;11588;51.178;4.852;2023-06-14T01:03:25;3.95;;;1.67;;
22843;SDS011;11588;51.178;4.852;2023-06-14T01:11:31;5.50;;;2.33;;
22843;SDS011;11588;51.178;4.852;2023-06-14T01:14:01;3.92;;;2.30;;
22843;SDS011;11588;51.178;4.852;2023-06-14T01:16:29;13.38;;;2.28;;
22843;SDS011;11588;51.178;4.852;2023-06-14T01:18:57;3.50;;;1.92;;
22843;SDS011;11588;51.178;4.852;2023-06-14T01:21:24;4.25;;;2.33;;
22843;SDS011;11588;51.178;4.852;2023-06-14T01:23:51;10.70;;;2.13;;
22843;SDS011;11588;51.178;4.852;2023-06-14T01:26:19;4.45;;;2.30;;
22843;SDS011;11588;51.178;4.852;2023-06-14T01:28:47;3.08;;;1.80;;
22843;SDS011;11588;51.178;4.852;2023-06-14T01:31:16;3.45;;;1.80;;
22843;SDS011;11588;51.178;4.852;2023-06-14T01:33:44;1.92;;;1.52;;
22843;SDS011;11588;51.178;4.852;2023-06-14T01:36:11;5.53;;;1.75;;
22843;SDS011;11588;51.178;4.852;2023-06-14T01:38:38;3.33;;;2.28;;
22843;SDS011;11588;51.178;4.852;2023-06-14T01:41:06;3.28;;;2.08;;
22843;SDS011;11588;51.178;4.852;2023-06-14T01:43:32;4.43;;;1.75;;
22843;SDS011;11588;51.178;4.852;2023-06-14T01:45:59;3.83;;;1.60;;
22843;SDS011;11588;51.178;4.852;2023-06-14T01:48:26;3.60;;;2.13;;
22843;SDS011;11588;51.178;4.852;2023-06-14T01:50:53;2.45;;;1.60;;
22843;SDS011;11588;51.178;4.852;2023-06-14T01:53:19;3.13;;;1.75;;
22843;SDS011;11588;51.178;4.852;2023-06-14T01:55:46;4.00;;;2.22;;
22843;SDS011;11588;51.178;4.852;2023-06-14T01:58:14;3.00;;;1.58;;
22843;SDS011;11588;51.178;4.852;2023-06-14T02:00:42;4.65;;;1.90;;
22843;SDS011;11588;51.178;4.852;2023-06-14T02:03:10;2.85;;;1.55;;
22843;SDS011;11588;51.178;4.852;2023-06-14T02:05:37;2.38;;;1.63;;
22843;SDS011;11588;51.178;4.852;2023-06-14T02:08:05;2.60;;;1.42;;
22843;SDS011;11588;51.178;4.852;2023-06-14T02:10:32;3.17;;;1.70;;
22843;SDS011;11588;51.178;4.852;2023-06-14T02:12:59;12.57;;;1.52;;
22843;SDS011;11588;51.178;4.852;2023-06-14T02:15:26;2.38;;;1.48;;
22843;SDS011;11588;51.178;4.852;2023-06-14T02:18:03;2.85;;;1.55;;
22843;SDS011;11588;51.178;4.852;2023-06-14T02:20:30;2.63;;;1.63;;
22843;SDS011;11588;51.178;4.852;2023-06-14T02:22:57;3.17;;;1.50;;
22843;SDS011;11588;51.178;4.852;2023-06-14T02:25:23;2.53;;;1.50;;
22843;SDS011;11588;51.178;4.852;2023-06-14T02:27:50;4.32;;;2.00;;
22843;SDS011;11588;51.178;4.852;2023-06-14T02:30:16;5.90;;;1.70;;
22843;SDS011;11588;51.178;4.852;2023-06-14T02:32:42;2.08;;;1.35;;
22843;SDS011;11588;51.178;4.852;2023-06-14T02:35:09;1.77;;;1.52;;
22843;SDS011;11588;51.178;4.852;2023-06-14T02:37:36;2.75;;;1.40;;
22843;SDS011;11588;51.178;4.852;2023-06-14T02:40:03;3.60;;;1.80;;
22843;SDS011;11588;51.178;4.852;2023-06-14T02:42:29;2.67;;;1.70;;
22843;SDS011;11588;51.178;4.852;2023-06-14T02:44:56;3.33;;;1.50;;
22843;SDS011;11588;51.178;4.852;2023-06-14T02:47:22;6.68;;;1.50;;
22843;SDS011;11588;51.178;4.852;2023-06-14T02:49:50;3.92;;;2.25;;
22843;SDS011;11588;51.178;4.852;2023-06-14T02:52:16;5.85;;;1.88;;
22843;SDS011;11588;51.178;4.852;2023-06-14T02:54:43;2.15;;;1.33;;
22843;SDS011;11588;51.178;4.852;2023-06-14T02:57:09;3.45;;;1.73;;
22843;SDS011;11588;51.178;4.852;2023-06-14T02:59:36;2.70;;;1.80;;
22843;SDS011;11588;51.178;4.852;2023-06-14T03:02:03;3.22;;;1.48;;
22843;SDS011;11588;51.178;4.852;2023-06-14T03:04:29;3.17;;;1.75;;
22843;SDS011;11588;51.178;4.852;2023-06-14T03:07:02;2.45;;;1.65;;
22843;SDS011;11588;51.178;4.852;2023-06-14T03:09:35;2.60;;;1.45;;
22843;SDS011;11588;51.178;4.852;2023-06-14T03:12:03;2.05;;;1.48;;
22843;SDS011;11588;51.178;4.852;2023-06-14T03:14:30;4.60;;;2.10;;
22843;SDS011;11588;51.178;4.852;2023-06-14T03:16:56;3.28;;;1.60;;
22843;SDS011;11588;51.178;4.852;2023-06-14T03:19:23;2.42;;;1.55;;
22843;SDS011;11588;51.178;4.852;2023-06-14T03:21:49;2.85;;;1.83;;
22843;SDS011;11588;51.178;4.852;2023-06-14T03:24:16;2.20;;;1.25;;
22843;SDS011;11588;51.178;4.852;2023-06-14T03:26:43;6.85;;;2.00;;
22843;SDS011;11588;51.178;4.852;2023-06-14T03:29:10;2.85;;;1.73;;
22843;SDS011;11588;51.178;4.852;2023-06-14T03:31:41;2.63;;;1.58;;
22843;SDS011;11588;51.178;4.852;2023-06-14T03:34:23;3.22;;;1.60;;
22843;SDS011;11588;51.178;4.852;2023-06-14T03:36:49;2.88;;;1.27;;
22843;SDS011;11588;51.178;4.852;2023-06-14T03:39:16;2.03;;;1.23;;
22843;SDS011;11588;51.178;4.852;2023-06-14T03:41:43;2.30;;;1.20;;
22843;SDS011;11588;51.178;4.852;2023-06-14T03:44:09;2.35;;;1.52;;
22843;SDS011;11588;51.178;4.852;2023-06-14T03:46:36;1.15;;;1.00;;
22843;SDS011;11588;51.178;4.852;2023-06-14T03:49:03;4.72;;;1.73;;
22843;SDS011;11588;51.178;4.852;2023-06-14T03:51:29;2.05;;;1.17;;
22843;SDS011;11588;51.178;4.852;2023-06-14T03:53:56;3.03;;;1.40;;
22843;SDS011;11588;51.178;4.852;2023-06-14T03:56:23;7.20;;;2.15;;
22843;SDS011;11588;51.178;4.852;2023-06-14T03:58:50;3.35;;;1.77;;
22843;SDS011;11588;51.178;4.852;2023-06-14T04:01:16;2.80;;;1.25;;
22843;SDS011;11588;51.178;4.852;2023-06-14T04:03:43;6.70;;;2.15;;
22843;SDS011;11588;51.178;4.852;2023-06-14T04:06:09;5.90;;;1.80;;
22843;SDS011;11588;51.178;4.852;2023-06-14T04:08:36;6.05;;;1.95;;
22843;SDS011;11588;51.178;4.852;2023-06-14T04:11:06;2.45;;;1.52;;
22843;SDS011;11588;51.178;4.852;2023-06-14T04:13:34;3.08;;;1.40;;
22843;SDS011;11588;51.178;4.852;2023-06-14T04:16:01;2.63;;;1.48;;
22843;SDS011;11588;51.178;4.852;2023-06-14T04:18:28;2.10;;;0.95;;
22843;SDS011;11588;51.178;4.852;2023-06-14T04:20:54;3.70;;;1.70;;
22843;SDS011;11588;51.178;4.852;2023-06-14T04:23:23;2.38;;;1.63;;
22843;SDS011;11588;51.178;4.852;2023-06-14T04:25:48;2.17;;;1.45;;
22843;SDS011;11588;51.178;4.852;2023-06-14T04:28:14;2.05;;;1.38;;
22843;SDS011;11588;51.178;4.852;2023-06-14T04:30:42;2.72;;;1.40;;
22843;SDS011;11588;51.178;4.852;2023-06-14T04:33:08;2.67;;;1.85;;
22843;SDS011;11588;51.178;4.852;2023-06-14T04:35:35;3.92;;;1.38;;
22843;SDS011;11588;51.178;4.852;2023-06-14T04:38:03;3.50;;;2.10;;
22843;SDS011;11588;51.178;4.852;2023-06-14T04:40:32;5.20;;;1.85;;
22843;SDS011;11588;51.178;4.852;2023-06-14T04:42:59;7.50;;;1.92;;
22843;SDS011;11588;51.178;4.852;2023-06-14T04:45:27;3.28;;;1.80;;
22843;SDS011;11588;51.178;4.852;2023-06-14T04:47:59;1.88;;;1.00;;
22843;SDS011;11588;51.178;4.852;2023-06-14T04:50:26;4.85;;;1.83;;
22843;SDS011;11588;51.178;4.852;2023-06-14T04:52:53;2.97;;;1.63;;
22843;SDS011;11588;51.178;4.852;2023-06-14T04:55:19;2.72;;;1.60;;
22843;SDS011;11588;51.178;4.852;2023-06-14T04:57:47;3.67;;;1.42;;
22843;SDS011;11588;51.178;4.852;2023-06-14T05:00:13;8.27;;;1.92;;
22843;SDS011;11588;51.178;4.852;2023-06-14T05:02:40;2.17;;;1.20;;
22843;SDS011;11588;51.178;4.852;2023-06-14T05:05:07;4.32;;;1.88;;
22843;SDS011;11588;51.178;4.852;2023-06-14T05:07:33;7.40;;;3.00;;
22843;SDS011;11588;51.178;4.852;2023-06-14T05:10:00;3.60;;;1.77;;
22843;SDS011;11588;51.178;4.852;2023-06-14T05:12:26;6.22;;;1.83;;
22843;SDS011;11588;51.178;4.852;2023-06-14T05:14:53;4.38;;;1.90;;
22843;SDS011;11588;51.178;4.852;2023-06-14T05:17:19;3.53;;;1.30;;
22843;SDS011;11588;51.178;4.852;2023-06-14T05:19:46;3.70;;;1.90;;
22843;SDS011;11588;51.178;4.852;2023-06-14T05:22:12;4.03;;;2.03;;
22843;SDS011;11588;51.178;4.852;2023-06-14T05:24:39;4.40;;;1.52;;
22843;SDS011;11588;51.178;4.852;2023-06-14T05:27:05;2.65;;;2.05;;
22843;SDS011;11588;51.178;4.852;2023-06-14T05:29:32;3.88;;;1.73;;
22843;SDS011;11588;51.178;4.852;2023-06-14T05:31:58;5.88;;;1.90;;
22843;SDS011;11588;51.178;4.852;2023-06-14T05:34:25;2.90;;;1.60;;
22843;SDS011;11588;51.178;4.852;2023-06-14T05:36:51;2.45;;;1.63;;
22843;SDS011;11588;51.178;4.852;2023-06-14T05:39:19;5.38;;;1.80;;
22843;SDS011;11588;51.178;4.852;2023-06-14T05:41:45;3.22;;;1.65;;
22843;SDS011;11588;51.178;4.852;2023-06-14T05:44:11;3.45;;;1.80;;
22843;SDS011;11588;51.178;4.852;2023-06-14T05:46:38;4.53;;;2.40;;
22843;SDS011;11588;51.178;4.852;2023-06-14T05:49:06;4.38;;;3.13;;
22843;SDS011;11588;51.178;4.852;2023-06-14T05:51:32;3.35;;;1.80;;
22843;SDS011;11588;51.178;4.852;2023-06-14T05:53:59;4.82;;;2.38;;
22843;SDS011;11588;51.178;4.852;2023-06-14T05:56:25;5.50;;;2.13;;
22843;SDS011;11588;51.178;4.852;2023-06-14T05:58:52;2.45;;;1.58;;
22843;SDS011;11588;51.178;4.852;2023-06-14T06:01:18;4.35;;;2.22;;
22843;SDS011;11588;51.178;4.852;2023-06-14T06:03:45;2.22;;;1.58;;
22843;SDS011;11588;51.178;4.852;2023-06-14T06:06:12;9.10;;;2.60;;
22843;SDS011;11588;51.178;4.852;2023-06-14T06:08:38;7.53;;;1.85;;
22843;SDS011;11588;51.178;4.852;2023-06-14T06:11:05;3.65;;;1.65;;
22843;SDS011;11588;51.178;4.852;2023-06-14T06:13:32;4.38;;;1.90;;
22843;SDS011;11588;51.178;4.852;2023-06-14T06:15:58;4.43;;;2.22;;
22843;SDS011;11588;51.178;4.852;2023-06-14T06:18:24;6.68;;;2.53;;
22843;SDS011;11588;51.178;4.852;2023-06-14T06:20:50;3.33;;;2.10;;
22843;SDS011;11588;51.178;4.852;2023-06-14T06:23:17;3.20;;;2.00;;
22843;SDS011;11588;51.178;4.852;2023-06-14T06:25:43;2.72;;;1.60;;
22843;SDS011;11588;51.178;4.852;2023-06-14T06:28:09;5.65;;;2.42;;
22843;SDS011;11588;51.178;4.852;2023-06-14T06:30:35;5.35;;;1.73;;
22843;SDS011;11588;51.178;4.852;2023-06-14T06:33:02;3.40;;;2.08;;
22843;SDS011;11588;51.178;4.852;2023-06-14T06:35:29;4.65;;;2.10;;
22843;SDS011;11588;51.178;4.852;2023-06-14T06:37:56;4.43;;;1.67;;
22843;SDS011;11588;51.178;4.852;2023-06-14T06:40:23;3.58;;;1.90;;
22843;SDS011;11588;51.178;4.852;2023-06-14T06:42:50;3.15;;;1.80;;
22843;SDS011;11588;51.178;4.852;2023-06-14T06:45:16;4.60;;;2.22;;
22843;SDS011;11588;51.178;4.852;2023-06-14T06:47:42;2.85;;;1.77;;
22843;SDS011;11588;51.178;4.852;2023-06-14T06:50:08;5.57;;;2.15;;
22843;SDS011;11588;51.178;4.852;2023-06-14T06:52:35;5.18;;;2.10;;
22843;SDS011;11588;51.178;4.852;2023-06-14T06:55:01;3.42;;;1.73;;
22843;SDS011;11588;51.178;4.852;2023-06-14T06:57:28;3.65;;;1.83;;
22843;SDS011;11588;51.178;4.852;2023-06-14T06:59:57;4.50;;;2.30;;
22843;SDS011;11588;51.178;4.852;2023-06-14T07:02:23;6.80;;;2.50;;
22843;SDS011;11588;51.178;4.852;2023-06-14T07:04:50;4.60;;;1.83;;
22843;SDS011;11588;51.178;4.852;2023-06-14T07:07:17;9.90;;;2.70;;
22843;SDS011;11588;51.178;4.852;2023-06-14T07:09:43;5.30;;;2.20;;
22843;SDS011;11588;51.178;4.852;2023-06-14T07:12:10;5.13;;;2.33;;
22843;SDS011;11588;51.178;4.852;2023-06-14T07:14:37;4.53;;;2.00;;
22843;SDS011;11588;51.178;4.852;2023-06-14T07:17:03;6.35;;;1.95;;
22843;SDS011;11588;51.178;4.852;2023-06-14T07:19:30;3.17;;;1.83;;
22843;SDS011;11588;51.178;4.852;2023-06-14T07:21:57;7.40;;;2.10;;
22843;SDS011;11588;51.178;4.852;2023-06-14T07:24:23;5.18;;;2.05;;
22843;SDS011;11588;51.178;4.852;2023-06-14T07:26:50;8.98;;;2.63;;
22843;SDS011;11588;51.178;4.852;2023-06-14T07:29:17;4.18;;;2.15;;
22843;SDS011;11588;51.178;4.852;2023-06-14T07:31:43;2.95;;;2.30;;
22843;SDS011;11588;51.178;4.852;2023-06-14T07:34:09;4.13;;;2.15;;
22843;SDS011;11588;51.178;4.852;2023-06-14T07:36:36;3.63;;;1.52;;
22843;SDS011;11588;51.178;4.852;2023-06-14T07:39:02;3.67;;;1.50;;
22843;SDS011;11588;51.178;4.852;2023-06-14T07:41:29;5.38;;;1.75;;
22843;SDS011;11588;51.178;4.852;2023-06-14T07:43:56;2.50;;;1.70;;
22843;SDS011;11588;51.178;4.852;2023-06-14T07:46:22;4.40;;;1.88;;
22843;SDS011;11588;51.178;4.852;2023-06-14T07:48:49;3.22;;;1.85;;
22843;SDS011;11588;51.178;4.852;2023-06-14T07:51:16;3.35;;;2.15;;
22843;SDS011;11588;51.178;4.852;2023-06-14T07:53:42;8.70;;;2.10;;
22843;SDS011;11588;51.178;4.852;2023-06-14T07:56:09;3.95;;;2.53;;
22843;SDS011;11588;51.178;4.852;2023-06-14T07:58:36;2.38;;;1.55;;
22843;SDS011;11588;51.178;4.852;2023-06-14T08:01:02;2.00;;;1.80;;
22843;SDS011;11588;51.178;4.852;2023-06-14T08:03:34;3.25;;;1.98;;
22843;SDS011;11588;51.178;4.852;2023-06-14T08:06:00;3.00;;;1.77;;
22843;SDS011;11588;51.178;4.852;2023-06-14T08:08:27;2.33;;;1.52;;
22843;SDS011;11588;51.178;4.852;2023-06-14T08:10:54;1.80;;;1.45;;
22843;SDS011;11588;51.178;4.852;2023-06-14T08:13:21;2.92;;;2.03;;
22843;SDS011;11588;51.178;4.852;2023-06-14T08:15:48;3.42;;;1.83;;
22843;SDS011;11588;51.178;4.852;2023-06-14T08:18:14;8.82;;;2.38;;
22843;SDS011;11588;51.178;4.852;2023-06-14T08:20:41;4.68;;;2.28;;
22843;SDS011;11588;51.178;4.852;2023-06-14T08:23:06;4.22;;;2.22;;
22843;SDS011;11588;51.178;4.852;2023-06-14T08:25:33;3.70;;;1.88;;
22843;SDS011;11588;51.178;4.852;2023-06-14T08:27:59;3.03;;;2.15;;
22843;SDS011;11588;51.178;4.852;2023-06-14T08:30:27;2.80;;;1.63;;
22843;SDS011;11588;51.178;4.852;2023-06-14T08:32:53;15.27;;;2.85;;
22843;SDS011;11588;51.178;4.852;2023-06-14T08:35:22;3.17;;;1.42;;
22843;SDS011;11588;51.178;4.852;2023-06-14T08:37:49;4.53;;;2.38;;
22843;SDS011;11588;51.178;4.852;2023-06-14T08:40:19;2.85;;;1.92;;
22843;SDS011;11588;51.178;4.852;2023-06-14T08:42:47;4.83;;;2.30;;
22843;SDS011;11588;51.178;4.852;2023-06-14T08:45:13;3.08;;;1.80;;
22843;SDS011;11588;51.178;4.852;2023-06-14T08:47:40;3.97;;;1.70;;
22843;SDS011;11588;51.178;4.852;2023-06-14T08:50:07;2.53;;;1.98;;
22843;SDS011;11588;51.178;4.852;2023-06-14T08:52:36;3.47;;;2.22;;
22843;SDS011;11588;51.178;4.852;2023-06-14T08:57:36;3.95;;;1.95;;
22843;SDS011;11588;51.178;4.852;2023-06-14T09:00:04;2.15;;;1.50;;
22843;SDS011;11588;51.178;4.852;2023-06-14T09:02:39;2.28;;;1.70;;
22843;SDS011;11588;51.178;4.852;2023-06-14T09:05:11;3.75;;;1.95;;
22843;SDS011;11588;51.178;4.852;2023-06-14T09:07:40;4.07;;;2.30;;
22843;SDS011;11588;51.178;4.852;2023-06-14T09:10:08;2.38;;;1.63;;
22843;SDS011;11588;51.178;4.852;2023-06-14T09:12:36;3.65;;;2.00;;
22843;SDS011;11588;51.178;4.852;2023-06-14T09:15:03;7.75;;;2.08;;
22843;SDS011;11588;51.178;4.852;2023-06-14T09:17:32;2.42;;;1.70;;
22843;SDS011;11588;51.178;4.852;2023-06-14T09:20:00;4.13;;;1.90;;
22843;SDS011;11588;51.178;4.852;2023-06-14T09:22:29;2.17;;;1.55;;
22843;SDS011;11588;51.178;4.852;2023-06-14T09:24:56;2.63;;;1.40;;
22843;SDS011;11588;51.178;4.852;2023-06-14T09:27:22;2.30;;;1.60;;
22843;SDS011;11588;51.178;4.852;2023-06-14T09:29:51;2.85;;;1.75;;
22843;SDS011;11588;51.178;4.852;2023-06-14T09:32:17;2.83;;;1.48;;
22843;SDS011;11588;51.178;4.852;2023-06-14T09:34:45;4.13;;;2.13;;
22843;SDS011;11588;51.178;4.852;2023-06-14T09:37:12;2.45;;;1.70;;
22843;SDS011;11588;51.178;4.852;2023-06-14T09:42:18;2.53;;;1.60;;
22843;SDS011;11588;51.178;4.852;2023-06-14T09:44:46;2.47;;;1.42;;
22843;SDS011;11588;51.178;4.852;2023-06-14T09:47:13;3.30;;;1.95;;
22843;SDS011;11588;51.178;4.852;2023-06-14T09:49:40;2.20;;;1.83;;
22843;SDS011;11588;51.178;4.852;2023-06-14T09:52:09;2.97;;;1.50;;
22843;SDS011;11588;51.178;4.852;2023-06-14T09:54:39;3.60;;;1.67;;
22843;SDS011;11588;51.178;4.852;2023-06-14T09:57:12;1.98;;;1.30;;
22843;SDS011;11588;51.178;4.852;2023-06-14T09:59:41;2.33;;;1.73;;
22843;SDS011;11588;51.178;4.852;2023-06-14T10:02:10;3.92;;;1.65;;
22843;SDS011;11588;51.178;4.852;2023-06-14T10:04:39;3.65;;;1.48;;
22843;SDS011;11588;51.178;4.852;2023-06-14T10:07:07;2.10;;;1.23;;
22843;SDS011;11588;51.178;4.852;2023-06-14T10:09:34;2.00;;;1.40;;
22843;SDS011;11588;51.178;4.852;2023-06-14T10:12:01;2.05;;;1.33;;
22843;SDS011;11588;51.178;4.852;2023-06-14T10:14:28;2.38;;;1.40;;
22843;SDS011;11588;51.178;4.852;2023-06-14T10:16:58;5.53;;;1.40;;
22843;SDS011;11588;51.178;4.852;2023-06-14T10:19:29;3.55;;;1.25;;
22843;SDS011;11588;51.178;4.852;2023-06-14T10:22:02;1.63;;;1.10;;
22843;SDS011;11588;51.178;4.852;2023-06-14T10:24:34;1.47;;;0.90;;
22843;SDS011;11588;51.178;4.852;2023-06-14T10:27:05;1.70;;;1.05;;
22843;SDS011;11588;51.178;4.852;2023-06-14T10:32:16;1.80;;;1.00;;
22843;SDS011;11588;51.178;4.852;2023-06-14T10:34:42;1.88;;;1.00;;
22843;SDS011;11588;51.178;4.852;2023-06-14T10:37:11;4.32;;;1.45;;
22843;SDS011;11588;51.178;4.852;2023-06-14T10:39:39;2.03;;;1.30;;
22843;SDS011;11588;51.178;4.852;2023-06-14T10:42:07;2.05;;;0.90;;
22843;SDS011;11588;51.178;4.852;2023-06-14T10:44:38;1.60;;;1.02;;
22843;SDS011;11588;51.178;4.852;2023-06-14T10:47:07;4.40;;;1.38;;
22843;SDS011;11588;51.178;4.852;2023-06-14T10:49:38;2.97;;;1.27;;
22843;SDS011;11588;51.178;4.852;2023-06-14T10:52:13;1.52;;;1.10;;
22843;SDS011;11588;51.178;4.852;2023-06-14T10:57:23;2.15;;;1.42;;
22843;SDS011;11588;51.178;4.852;2023-06-14T10:59:50;1.58;;;1.20;;
22843;SDS011;11588;51.178;4.852;2023-06-14T11:04:55;3.17;;;1.40;;
22843;SDS011;11588;51.178;4.852;2023-06-14T11:10:15;1.58;;;1.10;;
22843;SDS011;11588;51.178;4.852;2023-06-14T11:12:47;3.25;;;1.10;;
22843;SDS011;11588;51.178;4.852;2023-06-14T11:15:14;2.08;;;1.30;;
22843;SDS011;11588;51.178;4.852;2023-06-14T11:20:19;2.55;;;1.00;;
22843;SDS011;11588;51.178;4.852;2023-06-14T11:22:46;1.63;;;1.00;;
22843;SDS011;11588;51.178;4.852;2023-06-14T11:25:14;1.77;;;1.10;;
22843;SDS011;11588;51.178;4.852;2023-06-14T11:27:41;2.45;;;1.45;;
22843;SDS011;11588;51.178;4.852;2023-06-14T11:30:09;1.13;;;0.88;;
22843;SDS011;11588;51.178;4.852;2023-06-14T11:32:36;1.65;;;1.20;;
22843;SDS011;11588;51.178;4.852;2023-06-14T11:35:04;1.08;;;0.82;;
22843;SDS011;11588;51.178;4.852;2023-06-14T11:37:32;1.50;;;1.00;;
22843;SDS011;11588;51.178;4.852;2023-06-14T11:40:00;3.00;;;0.95;;
22843;SDS011;11588;51.178;4.852;2023-06-14T11:42:29;4.45;;;2.00;;
22843;SDS011;11588;51.178;4.852;2023-06-14T11:44:56;3.42;;;1.23;;
22843;SDS011;11588;51.178;4.852;2023-06-14T11:47:23;1.40;;;1.10;;
22843;SDS011;11588;51.178;4.852;2023-06-14T11:49:50;2.78;;;1.75;;
22843;SDS011;11588;51.178;4.852;2023-06-14T11:52:17;2.22;;;1.02;;
22843;SDS011;11588;51.178;4.852;2023-06-14T11:54:44;4.90;;;1.20;;
22843;SDS011;11588;51.178;4.852;2023-06-14T11:57:14;1.98;;;1.08;;
22843;SDS011;11588;51.178;4.852;2023-06-14T11:59:40;1.52;;;1.13;;
22843;SDS011;11588;51.178;4.852;2023-06-14T12:02:07;1.63;;;1.23;;
22843;SDS011;11588;51.178;4.852;2023-06-14T12:04:34;2.90;;;1.10;;
22843;SDS011;11588;51.178;4.852;2023-06-14T12:09:41;2.33;;;1.02;;
22843;SDS011;11588;51.178;4.852;2023-06-14T12:12:11;2.53;;;1.23;;
22843;SDS011;11588;51.178;4.852;2023-06-14T12:14:40;1.77;;;0.95;;
22843;SDS011;11588;51.178;4.852;2023-06-14T12:17:07;1.58;;;1.00;;
22843;SDS011;11588;51.178;4.852;2023-06-14T12:19:43;1.45;;;1.00;;
22843;SDS011;11588;51.178;4.852;2023-06-14T12:22:10;1.25;;;1.05;;
22843;SDS011;11588;51.178;4.852;2023-06-14T12:24:37;1.08;;;0.68;;
22843;SDS011;11588;51.178;4.852;2023-06-14T12:27:05;1.75;;;1.00;;
22843;SDS011;11588;51.178;4.852;2023-06-14T12:29:32;0.95;;;0.75;;
22843;SDS011;11588;51.178;4.852;2023-06-14T12:31:58;0.75;;;0.68;;
22843;SDS011;11588;51.178;4.852;2023-06-14T12:34:26;2.05;;;1.00;;
22843;SDS011;11588;51.178;4.852;2023-06-14T12:36:53;6.80;;;0.73;;
22843;SDS011;11588;51.178;4.852;2023-06-14T12:39:20;1.10;;;0.70;;
22843;SDS011;11588;51.178;4.852;2023-06-14T12:41:49;2.10;;;1.10;;
22843;SDS011;11588;51.178;4.852;2023-06-14T12:44:16;1.65;;;0.60;;
22843;SDS011;11588;51.178;4.852;2023-06-14T12:46:43;2.13;;;0.90;;
22843;SDS011;11588;51.178;4.852;2023-06-14T12:49:11;0.85;;;0.80;;
22843;SDS011;11588;51.178;4.852;2023-06-14T12:51:38;1.17;;;0.70;;
22843;SDS011;11588;51.178;4.852;2023-06-14T12:54:06;1.73;;;1.05;;
22843;SDS011;11588;51.178;4.852;2023-06-14T12:56:32;0.52;;;0.50;;
22843;SDS011;11588;51.178;4.852;2023-06-14T12:58:59;1.80;;;0.82;;
22843;SDS011;11588;51.178;4.852;2023-06-14T13:01:26;1.05;;;0.65;;
22843;SDS011;11588;51.178;4.852;2023-06-14T13:03:52;1.63;;;0.70;;
22843;SDS011;11588;51.178;4.852;2023-06-14T13:06:21;3.00;;;0.50;;
22843;SDS011;11588;51.178;4.852;2023-06-14T13:08:49;0.38;;;0.35;;
22843;SDS011;11588;51.178;4.852;2023-06-14T13:11:16;0.73;;;0.20;;
22843;SDS011;11588;51.178;4.852;2023-06-14T13:13:43;2.58;;;0.80;;
22843;SDS011;11588;51.178;4.852;2023-06-14T13:16:10;0.50;;;0.45;;
22843;SDS011;11588;51.178;4.852;2023-06-14T13:18:37;2.90;;;0.40;;
22843;SDS011;11588;51.178;4.852;2023-06-14T13:21:04;0.70;;;0.45;;
22843;SDS011;11588;51.178;4.852;2023-06-14T13:23:30;1.00;;;0.60;;
22843;SDS011;11588;51.178;4.852;2023-06-14T13:25:57;2.00;;;0.45;;
22843;SDS011;11588;51.178;4.852;2023-06-14T13:28:24;0.20;;;0.20;;
22843;SDS011;11588;51.178;4.852;2023-06-14T13:30:50;1.02;;;0.50;;
22843;SDS011;11588;51.178;4.852;2023-06-14T13:33:17;0.38;;;0.22;;
22843;SDS011;11588;51.178;4.852;2023-06-14T13:35:44;0.20;;;0.20;;
22843;SDS011;11588;51.178;4.852;2023-06-14T13:38:10;0.55;;;0.30;;
22843;SDS011;11588;51.178;4.852;2023-06-14T13:40:37;1.70;;;0.35;;
22843;SDS011;11588;51.178;4.852;2023-06-14T13:43:04;1.00;;;0.47;;
22843;SDS011;11588;51.178;4.852;2023-06-14T13:45:31;1.08;;;0.38;;
22843;SDS011;11588;51.178;4.852;2023-06-14T13:47:58;1.38;;;0.52;;
22843;SDS011;11588;51.178;4.852;2023-06-14T13:50:25;0.57;;;0.30;;
22843;SDS011;11588;51.178;4.852;2023-06-14T13:52:51;1.50;;;0.60;;
22843;SDS011;11588;51.178;4.852;2023-06-14T13:55:18;0.52;;;0.30;;
22843;SDS011;11588;51.178;4.852;2023-06-14T13:57:45;0.30;;;0.30;;
22843;SDS011;11588;51.178;4.852;2023-06-14T14:00:12;1.65;;;0.30;;
22843;SDS011;11588;51.178;4.852;2023-06-14T14:02:39;1.17;;;0.70;;
22843;SDS011;11588;51.178;4.852;2023-06-14T14:05:07;0.35;;;0.35;;
22843;SDS011;11588;51.178;4.852;2023-06-14T14:07:34;0.43;;;0.30;;
22843;SDS011;11588;51.178;4.852;2023-06-14T14:10:02;1.00;;;0.30;;
22843;SDS011;11588;51.178;4.852;2023-06-14T14:12:29;2.08;;;0.52;;
22843;SDS011;11588;51.178;4.852;2023-06-14T14:14:56;0.52;;;0.40;;
22843;SDS011;11588;51.178;4.852;2023-06-14T14:17:23;2.50;;;0.50;;
22843;SDS011;11588;51.178;4.852;2023-06-14T14:19:49;1.35;;;0.68;;
22843;SDS011;11588;51.178;4.852;2023-06-14T14:22:16;0.90;;;0.50;;
22843;SDS011;11588;51.178;4.852;2023-06-14T14:24:43;0.57;;;0.40;;
22843;SDS011;11588;51.178;4.852;2023-06-14T14:27:10;0.95;;;0.50;;
22843;SDS011;11588;51.178;4.852;2023-06-14T14:29:37;0.73;;;0.40;;
22843;SDS011;11588;51.178;4.852;2023-06-14T14:32:03;0.30;;;0.30;;
22843;SDS011;11588;51.178;4.852;2023-06-14T14:34:30;3.33;;;0.40;;
22843;SDS011;11588;51.178;4.852;2023-06-14T14:36:57;0.45;;;0.40;;
22843;SDS011;11588;51.178;4.852;2023-06-14T14:39:24;1.52;;;0.40;;
22843;SDS011;11588;51.178;4.852;2023-06-14T14:41:51;5.78;;;0.70;;
22843;SDS011;11588;51.178;4.852;2023-06-14T14:44:18;1.48;;;0.50;;
22843;SDS011;11588;51.178;4.852;2023-06-14T14:46:45;0.57;;;0.40;;
22843;SDS011;11588;51.178;4.852;2023-06-14T14:49:12;1.15;;;0.50;;
22843;SDS011;11588;51.178;4.852;2023-06-14T14:51:39;1.15;;;0.60;;
22843;SDS011;11588;51.178;4.852;2023-06-14T14:54:06;0.43;;;0.35;;
22843;SDS011;11588;51.178;4.852;2023-06-14T14:56:33;0.77;;;0.57;;
22843;SDS011;11588;51.178;4.852;2023-06-14T14:59:01;0.73;;;0.40;;
22843;SDS011;11588;51.178;4.852;2023-06-14T15:01:29;0.73;;;0.43;;
22843;SDS011;11588;51.178;4.852;2023-06-14T15:03:56;0.32;;;0.32;;
22843;SDS011;11588;51.178;4.852;2023-06-14T15:06:22;0.55;;;0.38;;
22843;SDS011;11588;51.178;4.852;2023-06-14T15:08:49;0.63;;;0.38;;
22843;SDS011;11588;51.178;4.852;2023-06-14T15:11:17;1.10;;;0.50;;
22843;SDS011;11588;51.178;4.852;2023-06-14T15:13:44;2.58;;;0.50;;
22843;SDS011;11588;51.178;4.852;2023-06-14T15:16:10;1.15;;;0.60;;